Time;durP1;ratioP1;P1;durP2;ratioP2;P2;SDS_P1;SDS_P2;PMS_P1;PMS_P2;Temp;Humidity;BMP_temperature;BMP_pressure;BME280_temperature;BME280_humidity;BME280_pressure;Samples;Min_cycle;Max_cycle;Signal;HPM_P1;HPM_P2
2023/08/20 00:00:15;;;;;;;13.63;12.43;;;18.90;99.90;;;;;;8306334;28;20186;-64
2023/08/20 00:04:17;;;;;;;14.73;13.53;;;18.90;99.90;;;;;;8318907;28;20186;-65
2023/08/20 00:08:19;;;;;;;14.30;13.10;;;18.80;99.90;;;;;;8315997;28;20278;-65
2023/08/20 00:12:22;;;;;;;12.67;11.57;;;18.80;99.90;;;;;;8335254;28;20206;-66
2023/08/20 00:16:23;;;;;;;13.40;12.10;;;18.70;99.90;;;;;;8334269;28;20214;-65
2023/08/20 00:20:25;;;;;;;12.97;11.87;;;18.60;99.90;;;;;;8338298;28;20198;-64
2023/08/20 00:24:26;;;;;;;12.77;11.67;;;18.60;99.90;;;;;;8315994;28;20208;-64
2023/08/20 00:28:29;;;;;;;13.27;11.93;;;18.50;99.90;;;;;;8334134;28;20197;-64
2023/08/20 00:32:30;;;;;;;11.67;10.73;;;18.50;99.90;;;;;;8335615;28;20249;-65
2023/08/20 00:36:31;;;;;;;12.37;11.37;;;18.40;99.90;;;;;;8340193;28;20206;-65
2023/08/20 00:40:35;;;;;;;14.27;13.07;;;18.40;99.90;;;;;;8317998;28;20269;-65
2023/08/20 00:44:36;;;;;;;14.87;13.57;;;18.40;99.90;;;;;;8315469;28;20240;-64
2023/08/20 00:48:36;;;;;;;14.30;13.10;;;18.50;99.90;;;;;;8327766;28;20186;-64
2023/08/20 00:52:38;;;;;;;15.33;13.77;;;18.50;99.90;;;;;;8316555;28;20186;-65
2023/08/20 00:56:38;;;;;;;13.77;12.43;;;18.40;99.90;;;;;;8314599;28;20202;-65
2023/08/20 01:00:39;;;;;;;14.50;13.10;;;18.40;99.90;;;;;;8342246;28;20286;-64
2023/08/20 01:04:40;;;;;;;13.70;12.53;;;18.30;99.90;;;;;;8322829;28;20186;-64
2023/08/20 01:08:43;;;;;;;13.03;11.93;;;18.30;99.90;;;;;;8319505;28;20210;-64
2023/08/20 01:12:45;;;;;;;14.33;13.10;;;18.30;99.90;;;;;;8319891;28;21108;-64
2023/08/20 01:16:46;;;;;;;13.77;12.57;;;18.20;99.90;;;;;;8325402;28;20210;-63
2023/08/20 01:20:58;;;;;;;13.40;12.20;;;18.20;99.90;;;;;;8321977;28;20217;-64
2023/08/20 01:25:18;;;;;;;14.10;12.90;;;18.10;99.90;;;;;;8301182;28;20289;-64
2023/08/20 01:29:19;;;;;;;14.37;13.07;;;18.10;99.90;;;;;;8324765;28;20211;-64
2023/08/20 01:33:20;;;;;;;13.50;12.30;;;18.10;99.90;;;;;;8319914;28;20199;-64
2023/08/20 01:37:21;;;;;;;13.03;11.93;;;18.10;99.90;;;;;;8307786;28;20340;-64
2023/08/20 01:41:22;;;;;;;14.17;12.87;;;18.00;99.90;;;;;;8305784;28;20242;-64
2023/08/20 01:45:23;;;;;;;13.97;12.77;;;18.00;99.90;;;;;;8323215;28;20350;-63
2023/08/20 01:49:24;;;;;;;12.70;11.60;;;18.00;99.90;;;;;;8301882;28;20289;-64
2023/08/20 01:53:25;;;;;;;12.50;11.30;;;17.90;99.90;;;;;;8319998;28;20186;-65
2023/08/20 01:57:25;;;;;;;13.30;12.00;;;17.90;99.90;;;;;;8322067;28;20209;-64
2023/08/20 02:01:26;;;;;;;13.07;11.97;;;17.80;99.90;;;;;;8321806;28;20261;-64
2023/08/20 02:05:27;;;;;;;13.23;12.07;;;17.80;99.90;;;;;;8306301;28;20194;-64
2023/08/20 02:09:28;;;;;;;14.20;13.00;;;17.80;99.90;;;;;;8305428;28;20212;-64
2023/08/20 02:13:30;;;;;;;13.73;12.53;;;17.70;99.90;;;;;;8321713;28;20189;-64
2023/08/20 02:17:30;;;;;;;14.70;13.43;;;17.70;99.90;;;;;;8320607;28;20214;-64
2023/08/20 02:21:31;;;;;;;14.17;12.87;;;17.70;99.90;;;;;;8327151;28;20281;-65
2023/08/20 02:25:32;;;;;;;13.07;11.87;;;17.70;99.90;;;;;;8309545;28;20193;-64
2023/08/20 02:29:33;;;;;;;13.90;12.60;;;17.70;99.90;;;;;;8316423;28;20201;-64
2023/08/20 02:33:33;;;;;;;12.70;11.60;;;17.70;99.90;;;;;;8308157;28;20206;-65
2023/08/20 02:37:35;;;;;;;13.33;12.03;;;17.70;99.90;;;;;;8311887;28;20293;-65
2023/08/20 02:41:38;;;;;;;14.10;12.80;;;17.60;99.90;;;;;;8323071;28;20247;-65
2023/08/20 02:45:43;;;;;;;13.93;12.83;;;17.60;99.90;;;;;;8318814;28;20197;-64
2023/08/20 02:49:43;;;;;;;13.93;12.73;;;17.70;99.90;;;;;;8314124;28;20221;-64
2023/08/20 02:53:44;;;;;;;13.40;12.23;;;17.70;99.90;;;;;;8322391;28;20307;-65
2023/08/20 02:57:45;;;;;;;13.40;12.23;;;17.80;99.90;;;;;;8325720;28;20414;-64
2023/08/20 03:01:46;;;;;;;13.03;11.93;;;17.80;99.90;;;;;;8329150;28;20182;-64
2023/08/20 03:05:46;;;;;;;13.67;12.47;;;17.80;99.90;;;;;;8305860;28;20293;-65
2023/08/20 03:09:47;;;;;;;13.17;12.07;;;17.80;99.90;;;;;;8323710;28;20202;-64
2023/08/20 03:13:50;;;;;;;14.20;12.80;;;17.80;99.90;;;;;;8305534;28;20277;-65
2023/08/20 03:17:51;;;;;;;13.07;11.97;;;17.80;99.90;;;;;;8323237;28;20218;-64
2023/08/20 03:21:52;;;;;;;13.60;12.50;;;17.80;99.90;;;;;;8326348;28;20193;-64
2023/08/20 03:25:53;;;;;;;14.23;12.93;;;17.80;99.90;;;;;;8309708;28;20264;-65
2023/08/20 03:29:54;;;;;;;14.77;13.37;;;17.80;99.90;;;;;;8303583;28;20196;-64
2023/08/20 03:33:55;;;;;;;12.87;11.67;;;17.70;99.90;;;;;;8322582;28;20189;-64
2023/08/20 03:37:55;;;;;;;12.97;11.87;;;17.60;99.90;;;;;;8315845;28;20230;-64
2023/08/20 03:41:56;;;;;;;12.57;11.47;;;17.60;99.90;;;;;;8328840;28;20178;-64
2023/08/20 03:45:57;;;;;;;11.80;10.80;;;17.60;99.90;;;;;;8325379;28;20197;-64
2023/08/20 03:49:58;;;;;;;11.67;10.67;;;17.60;99.90;;;;;;8324625;28;20297;-64
2023/08/20 03:53:59;;;;;;;12.03;11.03;;;17.60;99.90;;;;;;8306664;28;20190;-65
2023/08/20 03:58:00;;;;;;;12.33;11.23;;;17.60;99.90;;;;;;8309823;28;20249;-64
2023/08/20 04:02:00;;;;;;;12.53;11.53;;;17.70;99.90;;;;;;8327095;28;20186;-64
2023/08/20 04:06:01;;;;;;;13.37;12.17;;;17.80;99.90;;;;;;8311525;28;20190;-65
2023/08/20 04:10:02;;;;;;;14.10;12.97;;;17.90;99.90;;;;;;8310284;28;20206;-64
2023/08/20 04:14:03;;;;;;;13.87;12.67;;;18.00;99.90;;;;;;8324739;28;20193;-64
2023/08/20 04:18:04;;;;;;;13.80;12.60;;;18.10;99.90;;;;;;8309157;28;20260;-64
2023/08/20 04:22:05;;;;;;;13.07;11.87;;;18.20;99.90;;;;;;8326791;28;20202;-63
2023/08/20 04:26:05;;;;;;;13.67;12.47;;;18.60;99.90;;;;;;8324623;28;20603;-64
2023/08/20 04:30:07;;;;;;;12.73;11.53;;;19.00;99.90;;;;;;8308565;28;20280;-63
2023/08/20 04:34:08;;;;;;;12.13;11.03;;;19.30;99.90;;;;;;8323545;28;20183;-64
2023/08/20 04:38:08;;;;;;;12.07;10.93;;;19.70;99.90;;;;;;8306397;28;20192;-63
2023/08/20 04:42:09;;;;;;;11.57;10.37;;;20.10;99.90;;;;;;8309970;28;20694;-64
2023/08/20 04:46:10;;;;;;;9.87;9.07;;;20.60;99.90;;;;;;8322749;28;20186;-64
2023/08/20 04:50:10;;;;;;;10.30;9.27;;;21.00;99.90;;;;;;8328791;28;20194;-64
2023/08/20 04:54:11;;;;;;;11.07;9.47;;;21.40;99.90;;;;;;8310464;28;20241;-64
2023/08/20 04:58:12;;;;;;;10.80;9.67;;;21.50;99.90;;;;;;8324029;28;20269;-64
2023/08/20 05:02:13;;;;;;;10.20;9.30;;;21.70;99.90;;;;;;8307816;28;20186;-63
2023/08/20 05:06:13;;;;;;;12.23;11.07;;;21.60;99.90;;;;;;8318257;28;20197;-62
2023/08/20 05:10:14;;;;;;;14.30;12.90;;;21.30;99.90;;;;;;8311102;28;20216;-63
2023/08/20 05:14:15;;;;;;;13.37;12.07;;;21.10;99.90;;;;;;8306558;28;20187;-62
2023/08/20 05:18:16;;;;;;;11.53;10.43;;;20.90;99.90;;;;;;8307150;28;20291;-63
2023/08/20 05:22:16;;;;;;;11.07;10.10;;;20.80;99.90;;;;;;8323175;28;20579;-63
2023/08/20 05:26:17;;;;;;;10.67;9.70;;;20.60;99.90;;;;;;8315909;28;20199;-63
2023/08/20 05:30:18;;;;;;;10.90;9.90;;;20.60;99.90;;;;;;8308830;28;20300;-63
2023/08/20 05:34:18;;;;;;;10.63;9.83;;;20.60;99.90;;;;;;8322780;28;20261;-63
2023/08/20 05:38:19;;;;;;;11.00;10.10;;;20.50;99.90;;;;;;8319539;28;20275;-62
2023/08/20 05:42:20;;;;;;;10.80;9.80;;;20.60;99.90;;;;;;8321309;28;20189;-63
2023/08/20 05:46:23;;;;;;;10.97;10.07;;;20.70;99.90;;;;;;8322995;28;20266;-63
2023/08/20 05:50:24;;;;;;;11.37;10.30;;;20.80;99.90;;;;;;8326536;28;20197;-64
2023/08/20 05:54:25;;;;;;;12.10;11.00;;;20.90;99.90;;;;;;8304660;28;20201;-65
2023/08/20 05:58:25;;;;;;;13.00;11.70;;;21.00;99.90;;;;;;8324575;28;20265;-65
2023/08/20 06:02:26;;;;;;;11.00;10.10;;;21.10;99.90;;;;;;8320101;28;20183;-65
2023/08/20 06:06:27;;;;;;;11.67;10.47;;;21.20;99.90;;;;;;8305405;28;20569;-65
2023/08/20 06:10:28;;;;;;;11.97;10.87;;;21.30;99.90;;;;;;8305022;28;20213;-65
2023/08/20 06:14:29;;;;;;;10.73;9.73;;;21.40;99.90;;;;;;8297196;28;20194;-65
2023/08/20 06:18:30;;;;;;;11.07;10.13;;;21.60;99.90;;;;;;8307976;28;20304;-65
2023/08/20 06:22:31;;;;;;;10.07;9.07;;;21.80;99.90;;;;;;8296986;28;20302;-65
2023/08/20 06:26:32;;;;;;;9.87;8.97;;;22.20;99.90;;;;;;8304177;28;20300;-65
2023/08/20 06:30:34;;;;;;;8.70;7.90;;;22.40;99.90;;;;;;8284181;28;20225;-66
2023/08/20 06:34:36;;;;;;;8.70;7.80;;;22.80;99.90;;;;;;8297079;28;20218;-65
2023/08/20 06:38:37;;;;;;;9.30;8.40;;;23.10;99.90;;;;;;8324817;28;20182;-66
2023/08/20 06:42:38;;;;;;;9.60;8.63;;;23.40;26.00;;;;;;8322254;28;20191;-66
2023/08/20 06:46:38;;;;;;;9.93;8.37;;;23.70;1.00;;;;;;8306477;28;20217;-66
2023/08/20 06:50:41;;;;;;;8.93;7.90;;;24.00;1.00;;;;;;8303489;28;20730;-65
2023/08/20 06:54:42;;;;;;;10.15;8.75;;;24.30;1.00;;;;;;8305088;28;20507;-65
2023/08/20 06:58:43;;;;;;;9.50;8.50;;;24.50;1.00;;;;;;8297687;28;20221;-67
2023/08/20 07:02:44;;;;;;;8.63;7.93;;;24.80;1.00;;;;;;8304177;28;20192;-70
2023/08/20 07:06:45;;;;;;;9.57;8.05;;;25.10;1.00;;;;;;8310884;28;20534;-67
2023/08/20 07:10:45;;;;;;;9.93;7.97;;;25.30;1.00;;;;;;8317873;28;20233;-64
2023/08/20 07:14:48;;;;;;;9.10;8.30;;;25.40;1.00;;;;;;8309435;28;20205;-67
2023/08/20 07:18:49;;;;;;;11.85;7.85;;;25.40;1.00;;;;;;8306033;28;20182;-65
2023/08/20 07:22:50;;;;;;;9.40;8.05;;;25.60;1.00;;;;;;8332883;28;20205;-64
2023/08/20 07:26:52;;;;;;;8.45;7.75;;;25.80;1.00;;;;;;8309592;28;20305;-66
2023/08/20 07:30:53;;;;;;;8.90;8.20;;;25.90;1.00;;;;;;8321477;28;20205;-64
2023/08/20 07:34:53;;;;;;;9.93;7.95;;;26.10;1.00;;;;;;8326393;28;20221;-63
2023/08/20 07:38:55;;;;;;;9.25;8.35;;;26.30;1.00;;;;;;8305983;28;20179;-65
2023/08/20 07:42:56;;;;;;;9.07;8.38;;;26.60;1.00;;;;;;8322326;28;20284;-65
2023/08/20 07:46:57;;;;;;;8.93;8.23;;;26.90;1.00;;;;;;8304539;28;20344;-67
2023/08/20 07:50:58;;;;;;;10.15;9.25;;;27.00;1.00;;;;;;8320725;28;20187;-64
2023/08/20 07:54:58;;;;;;;12.65;9.18;;;26.80;1.00;;;;;;8307475;28;20209;-63
2023/08/20 07:58:59;;;;;;;11.80;10.38;;;26.70;1.00;;;;;;8323620;28;20193;-66
2023/08/20 08:03:00;;;;;;;10.52;9.60;;;26.80;1.00;;;;;;8326613;28;20181;-64
2023/08/20 08:07:01;;;;;;;11.30;10.30;;;26.80;1.00;;;;;;8322183;28;21460;-65
2023/08/20 08:11:02;;;;;;;10.88;9.88;;;26.70;1.00;;;;;;8307725;28;20210;-64
2023/08/20 08:15:02;;;;;;;11.77;10.57;;;26.80;1.00;;;;;;8312303;28;20213;-65
2023/08/20 08:19:03;;;;;;;11.73;10.73;;;26.90;1.00;;;;;;8313010;28;20188;-64
2023/08/20 08:23:04;;;;;;;11.13;10.23;;;26.90;1.00;;;;;;8308801;28;20201;-65
2023/08/20 08:27:05;;;;;;;11.30;10.20;;;26.90;1.00;;;;;;8323951;28;20189;-64
2023/08/20 08:31:05;;;;;;;11.02;10.13;;;27.20;1.00;;;;;;8305723;28;20197;-65
2023/08/20 08:35:07;;;;;;;11.05;9.90;;;27.50;1.00;;;;;;8313752;28;20291;-64
2023/08/20 08:39:08;;;;;;;10.20;9.20;;;27.60;1.00;;;;;;8310876;28;20179;-64
2023/08/20 08:43:16;;;;;;;12.13;9.88;;;27.80;1.00;;;;;;8312597;28;20374;-65
2023/08/20 08:47:18;;;;;;;11.23;9.95;;;27.90;1.00;;;;;;8311575;28;20241;-71
2023/08/20 08:51:18;;;;;;;9.65;8.85;;;28.10;1.00;;;;;;8325015;28;20632;-67
2023/08/20 08:55:19;;;;;;;10.13;9.32;;;28.20;1.00;;;;;;8316662;28;20253;-65
2023/08/20 08:59:20;;;;;;;10.27;9.10;;;28.20;1.00;;;;;;8304949;28;20269;-65
2023/08/20 09:03:21;;;;;;;11.77;9.40;;;28.50;1.00;;;;;;8323212;28;20182;-66
2023/08/20 09:07:22;;;;;;;9.70;8.90;;;28.70;1.00;;;;;;8321785;28;20221;-66
2023/08/20 09:11:22;;;;;;;12.50;9.43;;;28.90;1.00;;;;;;8324783;28;20210;-66
2023/08/20 09:15:31;;;;;;;9.82;9.02;;;29.00;1.00;;;;;;8311295;28;20383;-67
2023/08/20 09:19:39;;;;;;;9.77;8.93;;;29.10;1.00;;;;;;8307041;28;20208;-66
2023/08/20 09:23:39;;;;;;;9.40;8.50;;;29.40;1.00;;;;;;8322967;28;20236;-65
2023/08/20 09:27:41;;;;;;;9.88;8.57;;;29.90;1.00;;;;;;8308286;28;20189;-66
2023/08/20 09:31:43;;;;;;;8.75;8.13;;;30.40;1.00;;;;;;8304089;28;20190;-66
2023/08/20 09:35:51;;;;;;;9.73;8.75;;;30.90;1.00;;;;;;8324342;28;20206;-66
2023/08/20 09:39:52;;;;;;;10.13;9.23;;;31.30;1.00;;;;;;8308931;28;20190;-66
2023/08/20 09:44:04;;;;;;;9.52;8.77;;;31.50;1.00;;;;;;8323189;28;20210;-66
2023/08/20 09:48:09;;;;;;;8.95;8.15;;;31.10;1.00;;;;;;8319650;28;20220;-66
2023/08/20 09:52:21;;;;;;;9.05;8.18;;;30.70;1.00;;;;;;8309192;28;20190;-66
2023/08/20 09:56:31;;;;;;;10.23;9.30;;;30.50;1.00;;;;;;8298265;28;20203;-66
2023/08/20 10:00:32;;;;;;;9.40;8.55;;;30.50;1.00;;;;;;8326405;28;20487;-65
2023/08/20 10:04:34;;;;;;;8.93;8.15;;;30.30;1.00;;;;;;8304003;28;20249;-67
2023/08/20 10:08:35;;;;;;;9.30;8.48;;;30.50;1.00;;;;;;8307145;28;20216;-66
2023/08/20 10:12:38;;;;;;;10.73;8.48;;;30.70;1.00;;;;;;8322695;28;20178;-66
2023/08/20 10:16:40;;;;;;;9.77;8.98;;;30.90;1.00;;;;;;8325930;28;20220;-67
2023/08/20 10:20:41;;;;;;;10.38;9.30;;;31.10;1.00;;;;;;8325035;28;20182;-66
2023/08/20 10:24:49;;;;;;;9.70;8.85;;;31.30;1.00;;;;;;8304173;28;20380;-68
2023/08/20 10:28:51;;;;;;;9.30;8.40;;;31.80;1.00;;;;;;8308582;28;20704;-67
2023/08/20 10:32:58;;;;;;;9.20;8.50;;;31.90;1.00;;;;;;8325042;28;20259;-67
2023/08/20 10:37:03;;;;;;;8.43;7.47;;;32.00;1.00;;;;;;8303432;28;20210;-67
2023/08/20 10:41:07;;;;;;;8.32;7.63;;;32.10;1.00;;;;;;8306673;28;20188;-67
2023/08/20 10:45:09;;;;;;;8.07;7.28;;;32.10;1.00;;;;;;8333128;28;20238;-68
2023/08/20 10:49:17;;;;;;;8.88;7.78;;;31.80;1.00;;;;;;8300879;28;20193;-66
2023/08/20 10:53:22;;;;;;;8.57;7.88;;;31.50;1.00;;;;;;8303767;28;20195;-66
2023/08/20 10:57:33;;;;;;;8.35;7.60;;;31.40;1.00;;;;;;8306530;28;20539;-65
2023/08/20 11:01:35;;;;;;;9.50;8.60;;;31.50;1.00;;;;;;8323246;28;20178;-72
2023/08/20 11:05:36;;;;;;;9.02;8.32;;;31.50;1.00;;;;;;8316448;28;20196;-66
2023/08/20 11:09:39;;;;;;;9.07;8.10;;;31.10;1.00;;;;;;8312065;28;20197;-65
2023/08/20 11:13:40;;;;;;;8.38;7.65;;;30.80;1.00;;;;;;8321182;28;20193;-66
2023/08/20 11:17:48;;;;;;;9.05;8.15;;;31.10;1.00;;;;;;8321615;28;20206;-66
2023/08/20 11:21:52;;;;;;;9.73;8.82;;;31.40;1.00;;;;;;8321564;28;20185;-65
2023/08/20 11:25:52;;;;;;;10.18;9.18;;;31.90;1.00;;;;;;8306226;28;20196;-67
2023/08/20 11:29:56;;;;;;;10.00;9.00;;;32.40;1.00;;;;;;8304027;28;20213;-66
2023/08/20 11:33:57;;;;;;;9.75;8.82;;;32.10;1.00;;;;;;8326005;28;20395;-65
2023/08/20 11:37:58;;;;;;;9.02;8.32;;;31.90;99.90;;;;;;8307158;28;20218;-66
2023/08/20 11:42:01;;;;;;;9.30;8.40;;;32.10;99.90;;;;;;8292917;28;20183;-70
2023/08/20 11:46:02;;;;;;;9.82;8.10;;;32.40;1.00;;;;;;8299360;28;20183;-69
2023/08/20 11:50:04;;;;;;;8.95;8.25;;;32.70;1.00;;;;;;8284889;28;20541;-66
2023/08/20 11:54:25;;;;;;;9.13;8.43;;;32.80;99.90;;;;;;8286792;28;20212;-73
2023/08/20 11:58:28;;;;;;;9.27;8.57;;;32.80;99.90;;;;;;8288535;28;21631;-67
2023/08/20 12:02:29;;;;;;;9.18;8.30;;;32.70;99.90;;;;;;8306920;28;20186;-69
2023/08/20 12:06:31;;;;;;;9.10;8.30;;;32.20;99.90;;;;;;8304493;28;20190;-65
2023/08/20 12:10:33;;;;;;;9.70;8.75;;;31.90;99.90;;;;;;8302581;28;20245;-65
2023/08/20 12:14:35;;;;;;;9.88;8.88;;;31.40;99.90;;;;;;8289813;28;20186;-69
2023/08/20 12:18:35;;;;;;;11.02;9.93;;;31.20;99.90;;;;;;8313892;28;20283;-68
2023/08/20 12:22:36;;;;;;;10.60;9.60;;;31.20;1.00;;;;;;8303889;28;20281;-66
2023/08/20 12:26:38;;;;;;;11.18;10.07;;;31.10;1.00;;;;;;8321668;28;20280;-68
2023/08/20 12:30:39;;;;;;;11.45;10.45;;;30.90;1.00;;;;;;8310993;28;20197;-65
2023/08/20 12:34:39;;;;;;;11.45;10.45;;;30.80;1.00;;;;;;8320613;28;20193;-65
2023/08/20 12:38:41;;;;;;;12.15;11.05;;;30.80;1.00;;;;;;8314690;28;20187;-65
2023/08/20 12:42:43;;;;;;;11.90;10.90;;;30.90;1.00;;;;;;8322739;28;20178;-69
2023/08/20 12:46:44;;;;;;;12.57;11.57;;;31.00;1.00;;;;;;8298873;28;20221;-66
2023/08/20 12:50:45;;;;;;;11.80;10.80;;;30.90;1.00;;;;;;8309376;28;20328;-65
2023/08/20 12:54:49;;;;;;;12.75;11.57;;;31.00;1.00;;;;;;8302081;28;20191;-66
2023/08/20 12:58:49;;;;;;;12.27;11.18;;;31.10;1.00;;;;;;8305815;28;20193;-66
2023/08/20 13:02:51;;;;;;;11.80;10.57;;;31.20;1.00;;;;;;8313305;28;20229;-67
2023/08/20 13:06:52;;;;;;;12.27;11.23;;;31.30;1.00;;;;;;8320028;28;20277;-64
2023/08/20 13:10:57;;;;;;;13.00;11.70;;;31.10;1.00;;;;;;8323147;28;20271;-65
2023/08/20 13:14:58;;;;;;;13.60;12.25;;;30.80;1.00;;;;;;8313877;28;20198;-66
2023/08/20 13:18:59;;;;;;;13.48;12.27;;;30.50;1.00;;;;;;8324824;28;20186;-65
2023/08/20 13:22:59;;;;;;;13.77;12.48;;;30.40;1.00;;;;;;8309697;28;20190;-64
2023/08/20 13:27:00;;;;;;;15.07;13.77;;;30.40;1.00;;;;;;8325494;28;20194;-65
2023/08/20 13:31:01;;;;;;;15.15;13.82;;;30.50;1.00;;;;;;8303936;28;20197;-66
2023/08/20 13:35:04;;;;;;;13.98;12.80;;;30.70;1.00;;;;;;8307998;28;20203;-67
2023/08/20 13:39:05;;;;;;;15.48;13.93;;;30.80;1.00;;;;;;8320695;28;20183;-65
2023/08/20 13:43:06;;;;;;;14.63;13.18;;;30.90;1.00;;;;;;8317647;28;20178;-65
2023/08/20 13:47:07;;;;;;;15.02;13.82;;;31.00;1.00;;;;;;8325499;28;20496;-65
2023/08/20 13:51:07;;;;;;;13.48;12.15;;;30.90;1.00;;;;;;8319851;28;20272;-66
2023/08/20 13:55:08;;;;;;;12.82;11.73;;;31.20;1.00;;;;;;8318256;28;20202;-65
2023/08/20 13:59:10;;;;;;;12.23;11.15;;;31.20;1.00;;;;;;8323798;28;20186;-65
2023/08/20 14:03:11;;;;;;;12.90;11.80;;;31.20;1.00;;;;;;8309723;28;20192;-66
2023/08/20 14:07:11;;;;;;;12.43;11.23;;;31.30;1.00;;;;;;8307699;28;20241;-66
2023/08/20 14:11:12;;;;;;;12.65;11.32;;;31.30;1.00;;;;;;8324322;28;20206;-66
2023/08/20 14:15:13;;;;;;;9.60;8.80;;;31.40;1.00;;;;;;8323130;28;20277;-65
2023/08/20 14:19:14;;;;;;;12.27;10.13;;;31.40;1.00;;;;;;8305487;28;20186;-65
2023/08/20 14:23:15;;;;;;;10.63;9.52;;;31.50;1.00;;;;;;8303907;28;20209;-65
2023/08/20 14:27:16;;;;;;;9.48;8.57;;;31.50;1.00;;;;;;8304576;28;20189;-69
2023/08/20 14:31:18;;;;;;;9.13;8.20;;;31.60;99.90;;;;;;8325387;28;20196;-65
2023/08/20 14:35:20;;;;;;;9.32;8.18;;;31.60;99.90;;;;;;8322501;28;20201;-65
2023/08/20 14:39:20;;;;;;;8.90;8.13;;;31.90;99.90;;;;;;8305449;28;20269;-67
2023/08/20 14:43:21;;;;;;;12.00;8.45;;;32.20;99.90;;;;;;8308724;28;20260;-65
2023/08/20 14:47:22;;;;;;;7.50;6.80;;;32.30;99.90;;;;;;8306571;28;20232;-66
2023/08/20 14:51:23;;;;;;;7.35;6.55;;;32.40;99.90;;;;;;8307545;28;20189;-65
2023/08/20 14:55:23;;;;;;;8.07;7.22;;;32.20;99.90;;;;;;8322944;28;20202;-65
2023/08/20 14:59:26;;;;;;;7.97;7.13;;;32.20;99.90;;;;;;8324208;28;20181;-65
2023/08/20 15:03:26;;;;;;;9.25;7.60;;;32.40;99.90;;;;;;8326076;28;20265;-65
2023/08/20 15:07:27;;;;;;;8.75;7.93;;;32.50;99.90;;;;;;8321777;28;20185;-64
2023/08/20 15:11:28;;;;;;;7.88;7.13;;;32.50;99.90;;;;;;8329970;28;20291;-65
2023/08/20 15:15:28;;;;;;;8.55;7.75;;;32.40;99.90;;;;;;8311681;28;20229;-65
2023/08/20 15:19:29;;;;;;;9.88;8.98;;;32.20;99.90;;;;;;8311153;28;20221;-64
2023/08/20 15:23:30;;;;;;;8.75;7.95;;;32.20;99.90;;;;;;8322504;28;20272;-64
2023/08/20 15:27:32;;;;;;;10.13;9.10;;;32.30;99.90;;;;;;8330763;28;20186;-65
2023/08/20 15:31:33;;;;;;;9.95;9.05;;;32.50;99.90;;;;;;8326638;28;20200;-65
2023/08/20 15:35:34;;;;;;;10.02;9.13;;;32.40;99.90;;;;;;8313230;28;20205;-65
2023/08/20 15:39:35;;;;;;;12.20;9.80;;;32.20;99.90;;;;;;8316524;28;20187;-64
2023/08/20 15:43:35;;;;;;;9.15;8.43;;;32.10;99.90;;;;;;8319675;28;20193;-64
2023/08/20 15:47:36;;;;;;;9.20;8.30;;;32.20;99.90;;;;;;8317823;28;20228;-64
2023/08/20 15:51:37;;;;;;;8.40;7.70;;;32.30;99.90;;;;;;8329288;28;20191;-64
2023/08/20 15:55:38;;;;;;;8.20;6.78;;;32.30;99.90;;;;;;8329303;28;20256;-64
2023/08/20 15:59:40;;;;;;;9.75;6.55;;;32.20;99.90;;;;;;8315275;28;20210;-65
2023/08/20 16:03:42;;;;;;;7.40;6.70;;;32.10;99.90;;;;;;8314861;28;20301;-64
2023/08/20 16:07:43;;;;;;;6.78;6.20;;;32.00;99.90;;;;;;8335627;28;20246;-63
2023/08/20 16:11:43;;;;;;;8.55;6.95;;;32.10;99.90;;;;;;8332324;28;20300;-65
2023/08/20 16:15:44;;;;;;;7.45;6.57;;;32.10;99.90;;;;;;8322844;28;20225;-65
2023/08/20 16:19:45;;;;;;;7.13;6.38;;;32.20;99.90;;;;;;8313916;28;20193;-64
2023/08/20 16:23:46;;;;;;;7.50;6.80;;;32.20;99.90;;;;;;8310652;28;20194;-64
2023/08/20 16:27:46;;;;;;;7.22;6.63;;;32.20;99.90;;;;;;8305448;28;20189;-65
2023/08/20 16:31:47;;;;;;;8.10;7.30;;;32.20;99.90;;;;;;8328476;28;20190;-65
2023/08/20 16:35:48;;;;;;;8.25;7.43;;;31.80;99.90;;;;;;8314187;28;20213;-64
2023/08/20 16:39:49;;;;;;;7.95;7.25;;;31.60;99.90;;;;;;8312782;28;20182;-65
2023/08/20 16:43:50;;;;;;;10.15;7.50;;;31.60;99.90;;;;;;8331261;28;20182;-64
2023/08/20 16:47:51;;;;;;;8.07;7.40;;;31.30;99.90;;;;;;8312554;28;20538;-65
2023/08/20 16:51:52;;;;;;;8.77;7.88;;;31.20;1.00;;;;;;8302949;28;20182;-65
2023/08/20 16:55:54;;;;;;;8.40;7.45;;;30.90;1.00;;;;;;8329849;28;20238;-64
2023/08/20 16:59:54;;;;;;;8.88;7.78;;;30.60;1.00;;;;;;8310300;28;20197;-65
2023/08/20 17:03:55;;;;;;;8.52;7.82;;;30.50;1.00;;;;;;8330691;28;20185;-65
2023/08/20 17:07:56;;;;;;;8.20;7.53;;;30.40;1.00;;;;;;8305559;28;20186;-66
2023/08/20 17:11:57;;;;;;;8.90;8.10;;;30.40;1.00;;;;;;8315390;28;20202;-65
2023/08/20 17:15:58;;;;;;;10.15;8.45;;;30.20;1.00;;;;;;8327575;28;20701;-65
2023/08/20 17:19:58;;;;;;;9.52;8.50;;;30.10;1.00;;;;;;8309965;28;20255;-63
2023/08/20 17:23:59;;;;;;;8.95;8.18;;;29.80;1.00;;;;;;8334506;28;20193;-65
2023/08/20 17:28:00;;;;;;;8.95;8.15;;;29.70;1.00;;;;;;8311877;28;20212;-63
2023/08/20 17:32:01;;;;;;;9.43;8.52;;;29.60;1.00;;;;;;8312649;28;20197;-65
2023/08/20 17:36:03;;;;;;;10.00;9.10;;;29.40;1.00;;;;;;8325521;28;20197;-66
2023/08/20 17:40:05;;;;;;;9.68;8.88;;;29.20;1.00;;;;;;8319167;28;20184;-65
2023/08/20 17:44:06;;;;;;;9.55;8.75;;;29.00;1.00;;;;;;8316234;28;20179;-67
2023/08/20 17:48:06;;;;;;;9.98;9.07;;;28.80;1.00;;;;;;8318166;28;20196;-66
2023/08/20 17:52:07;;;;;;;9.65;8.75;;;28.50;1.00;;;;;;8324946;28;20186;-65
2023/08/20 17:56:08;;;;;;;10.68;9.45;;;28.30;1.00;;;;;;8321669;28;20195;-67
2023/08/20 18:00:10;;;;;;;9.32;8.63;;;27.90;1.00;;;;;;8320177;28;20186;-66
2023/08/20 18:04:10;;;;;;;9.13;8.43;;;27.70;1.00;;;;;;8309695;28;20771;-67
2023/08/20 18:08:12;;;;;;;9.48;8.68;;;27.40;1.00;;;;;;8305468;28;20212;-65
2023/08/20 18:12:12;;;;;;;10.48;9.48;;;27.20;1.00;;;;;;8326620;28;20231;-66
2023/08/20 18:16:13;;;;;;;9.93;9.02;;;26.80;1.00;;;;;;8323517;28;20237;-65
2023/08/20 18:20:14;;;;;;;10.13;9.25;;;26.60;3.20;;;;;;8310248;28;20182;-63
2023/08/20 18:24:15;;;;;;;11.15;10.25;;;26.40;38.30;;;;;;8316264;28;20198;-65
2023/08/20 18:28:16;;;;;;;10.05;9.25;;;26.20;57.60;;;;;;8325870;28;20186;-65
2023/08/20 18:32:17;;;;;;;10.68;9.88;;;26.00;92.10;;;;;;8327913;28;20185;-65
2023/08/20 18:36:17;;;;;;;11.43;10.38;;;25.90;99.90;;;;;;8300943;28;20206;-63
2023/08/20 18:40:18;;;;;;;10.88;9.77;;;25.80;99.90;;;;;;8303890;28;20187;-67
2023/08/20 18:44:19;;;;;;;11.38;10.27;;;25.70;99.90;;;;;;8296721;28;20190;-65
2023/08/20 18:48:20;;;;;;;11.45;10.55;;;25.60;99.90;;;;;;8320055;28;20266;-66
2023/08/20 18:52:21;;;;;;;11.82;10.85;;;25.50;99.90;;;;;;8302605;28;20209;-66
2023/08/20 18:56:22;;;;;;;10.93;10.02;;;25.30;99.90;;;;;;8315571;28;20245;-65
2023/08/20 19:00:23;;;;;;;12.00;10.90;;;25.20;99.90;;;;;;8326855;28;20269;-65
2023/08/20 19:04:23;;;;;;;12.82;11.63;;;25.00;99.90;;;;;;8309718;28;21438;-64
2023/08/20 19:08:25;;;;;;;12.48;11.43;;;24.90;99.90;;;;;;8330291;28;20199;-66
2023/08/20 19:12:26;;;;;;;12.63;11.43;;;24.80;99.90;;;;;;8337600;28;20190;-64
2023/08/20 19:16:27;;;;;;;11.65;10.55;;;24.80;99.90;;;;;;8318557;28;20222;-66
2023/08/20 19:20:28;;;;;;;12.20;11.20;;;24.80;99.90;;;;;;8314599;28;20198;-67
2023/08/20 19:24:28;;;;;;;12.07;10.93;;;24.70;99.90;;;;;;8337070;28;20277;-65
2023/08/20 19:28:30;;;;;;;11.97;10.97;;;24.60;99.90;;;;;;8326398;28;20186;-64
2023/08/20 19:32:31;;;;;;;11.93;10.87;;;24.50;99.90;;;;;;8311380;28;20243;-65
2023/08/20 19:36:32;;;;;;;12.90;11.70;;;24.40;99.90;;;;;;8308668;28;20205;-64
2023/08/20 19:40:37;;;;;;;12.57;11.47;;;24.30;99.90;;;;;;8326409;28;20191;-65
2023/08/20 19:44:38;;;;;;;12.27;11.23;;;24.20;1.00;;;;;;8327821;28;20174;-65
2023/08/20 19:48:40;;;;;;;11.73;10.80;;;24.10;1.00;;;;;;8322711;28;20192;-65
2023/08/20 19:52:43;;;;;;;12.60;11.43;;;24.10;1.00;;;;;;8319148;28;20179;-65
2023/08/20 19:56:44;;;;;;;12.10;11.10;;;23.90;1.00;;;;;;8325173;28;20526;-65
2023/08/20 20:00:45;;;;;;;12.17;11.17;;;23.90;1.00;;;;;;8305701;28;20263;-64
2023/08/20 20:04:46;;;;;;;11.73;10.77;;;23.80;1.00;;;;;;8310217;28;20308;-65
2023/08/20 20:08:47;;;;;;;12.57;11.57;;;23.70;1.00;;;;;;8314081;28;20240;-65
2023/08/20 20:12:48;;;;;;;12.50;11.43;;;23.70;1.00;;;;;;8317536;28;20190;-65
2023/08/20 20:16:49;;;;;;;12.33;11.33;;;23.60;45.70;;;;;;8312619;28;20211;-65
2023/08/20 20:20:50;;;;;;;12.87;11.67;;;23.60;98.10;;;;;;8315929;28;20198;-65
2023/08/20 20:24:55;;;;;;;12.93;11.83;;;23.50;99.90;;;;;;8326327;28;20596;-65
2023/08/20 20:28:56;;;;;;;12.03;11.07;;;23.50;99.90;;;;;;8328963;28;20182;-65
2023/08/20 20:32:59;;;;;;;11.33;10.37;;;23.40;99.90;;;;;;8323157;28;20195;-65
2023/08/20 20:37:00;;;;;;;11.10;10.17;;;23.30;99.90;;;;;;8331156;28;20559;-64
2023/08/20 20:41:01;;;;;;;10.57;9.77;;;23.30;99.90;;;;;;8323128;28;20245;-65
2023/08/20 20:45:03;;;;;;;10.73;9.80;;;23.20;99.90;;;;;;8313698;28;20182;-65